Rechercher aéroport 
image banner adimage banner adimage banner ad
image banner ad

E16 - San Martin

Situé à San Martin, United States

ICAO - E16, IATA -

Données fournies par Airmate  

Information générale

Coordonnées: N37°4'54" W121°35'49"
Élévation : 284 feet MSL.
Variation magnétique : 15° East
Voir autres Aéroports à California

Données opérationnelles

Special qualification required
Heure actuelle UTC:
Heure actuelle locale:
Météo à : KWVI - Watsonville Muni ( 24 km )
METAR: KWVI 251553Z AUTO VRB03KT 10SM OVC007 15/12 A3000 RMK AO2 SLP157 T01500122
Voir NOTAMs / SUP AIP / TFR affectant cet aéroport [VIEW]
Fréquences de communication: [VIEW]

Pistes:

Identifiant RWYQFULongueur (ft)Largeur (ft)SurfaceLDA (ft)
14156°309575ASPH
32336°309575ASPH

Coordonnées de l'aéroport

Adresse: San Martin United States

Autres services d'aviation

Écoles de pilotage

Magnum Aviation, Inc.

Magnum Aviation, Inc.

Vue satellite de E16